首页
METAR-TAF:

METAR-TAF

机场 :

奧利安, 紐約州, 美国

纬度: 42-14-28N, 经度: 078-22-17W, 海拔: 651米

当前天气观测

该预报发布于16分钟前的08:35 UTC
风速9节,风向西,有时为16节阵风,在南转西南西北之间变化
温度 6°C
湿度 100%
气压 1002 hPa
能見度: 16.1公里
阴天层高于800英尺

METAR: KOLE 100835Z AUTO 27009G16KT 210V310 10SM OVC008 06/06 A2960 RMK AO2

时间: 03:51 (08:51 UTC)


TAF: 丢失

超过4000个机场的气象观测和天气预报(METAR&TAF报告)。

可查询的气象台以黄色和红色小点在地图上表示。

将鼠标移到小点上方,可查看气象台名称。

然后点击查看天气观测和预报。

如需切换地图:点击带黑十字的绿色按钮放大地图;点击带横线的绿色按钮缩小地图;或者点击绿色箭头查看邻近地区的地图。


METAR-TAF: